sensor_id;sensor_type;location;lat;lon;timestamp;temperature;humidity
43143;DHT22;28750;59.842;17.584;2022-07-10T00:00:15;12.50;98.60
43143;DHT22;28750;59.842;17.584;2022-07-10T00:02:43;12.50;99.90
43143;DHT22;28750;59.842;17.584;2022-07-10T00:05:10;12.40;99.90
43143;DHT22;28750;59.842;17.584;2022-07-10T00:07:37;12.40;99.90
43143;DHT22;28750;59.842;17.584;2022-07-10T00:10:04;12.40;99.90
43143;DHT22;28750;59.842;17.584;2022-07-10T00:12:32;12.30;99.90
43143;DHT22;28750;59.842;17.584;2022-07-10T00:14:59;12.10;99.90
43143;DHT22;28750;59.842;17.584;2022-07-10T00:17:26;11.90;99.90
43143;DHT22;28750;59.842;17.584;2022-07-10T00:19:53;11.80;99.90
43143;DHT22;28750;59.842;17.584;2022-07-10T00:22:20;11.90;99.90
43143;DHT22;28750;59.842;17.584;2022-07-10T00:24:47;11.90;99.90
43143;DHT22;28750;59.842;17.584;2022-07-10T00:27:16;11.90;99.90
43143;DHT22;28750;59.842;17.584;2022-07-10T00:29:44;12.00;99.90
43143;DHT22;28750;59.842;17.584;2022-07-10T00:32:11;12.00;99.90
43143;DHT22;28750;59.842;17.584;2022-07-10T00:34:38;12.00;99.90
43143;DHT22;28750;59.842;17.584;2022-07-10T00:37:05;12.10;99.90
43143;DHT22;28750;59.842;17.584;2022-07-10T00:39:32;12.10;99.90
43143;DHT22;28750;59.842;17.584;2022-07-10T00:42:13;12.10;99.90
43143;DHT22;28750;59.842;17.584;2022-07-10T00:44:41;12.10;99.90
43143;DHT22;28750;59.842;17.584;2022-07-10T00:47:09;12.00;99.90
43143;DHT22;28750;59.842;17.584;2022-07-10T00:49:38;12.10;99.90
43143;DHT22;28750;59.842;17.584;2022-07-10T00:52:11;12.10;99.90
43143;DHT22;28750;59.842;17.584;2022-07-10T00:54:42;12.20;99.90
43143;DHT22;28750;59.842;17.584;2022-07-10T00:57:10;12.10;99.90
43143;DHT22;28750;59.842;17.584;2022-07-10T00:59:40;12.10;99.90
43143;DHT22;28750;59.842;17.584;2022-07-10T01:02:08;12.20;99.90
43143;DHT22;28750;59.842;17.584;2022-07-10T01:04:35;12.20;99.90
43143;DHT22;28750;59.842;17.584;2022-07-10T01:07:02;12.10;99.90
43143;DHT22;28750;59.842;17.584;2022-07-10T01:09:29;12.20;99.90
43143;DHT22;28750;59.842;17.584;2022-07-10T01:12:00;12.20;99.90
43143;DHT22;28750;59.842;17.584;2022-07-10T01:14:29;12.20;99.90
43143;DHT22;28750;59.842;17.584;2022-07-10T01:16:58;12.20;99.90
43143;DHT22;28750;59.842;17.584;2022-07-10T01:19:25;12.20;99.90
43143;DHT22;28750;59.842;17.584;2022-07-10T01:21:52;12.20;99.90
43143;DHT22;28750;59.842;17.584;2022-07-10T01:24:19;12.10;99.90
43143;DHT22;28750;59.842;17.584;2022-07-10T01:26:46;12.10;99.90
43143;DHT22;28750;59.842;17.584;2022-07-10T01:29:13;12.10;99.90
43143;DHT22;28750;59.842;17.584;2022-07-10T01:31:40;12.20;99.90
43143;DHT22;28750;59.842;17.584;2022-07-10T01:34:09;12.20;99.90
43143;DHT22;28750;59.842;17.584;2022-07-10T01:36:36;12.20;99.90
43143;DHT22;28750;59.842;17.584;2022-07-10T01:39:05;12.10;99.90
43143;DHT22;28750;59.842;17.584;2022-07-10T01:41:32;12.20;99.90
43143;DHT22;28750;59.842;17.584;2022-07-10T01:44:00;12.10;99.90
43143;DHT22;28750;59.842;17.584;2022-07-10T01:46:27;12.20;99.90
43143;DHT22;28750;59.842;17.584;2022-07-10T01:48:54;12.20;99.90
43143;DHT22;28750;59.842;17.584;2022-07-10T01:51:21;12.20;99.90
43143;DHT22;28750;59.842;17.584;2022-07-10T01:53:48;12.20;99.90
43143;DHT22;28750;59.842;17.584;2022-07-10T01:56:16;12.20;99.90
43143;DHT22;28750;59.842;17.584;2022-07-10T01:58:43;12.20;99.90
43143;DHT22;28750;59.842;17.584;2022-07-10T02:01:10;12.20;99.90
43143;DHT22;28750;59.842;17.584;2022-07-10T02:03:37;12.30;99.90
43143;DHT22;28750;59.842;17.584;2022-07-10T02:06:22;12.30;99.90
43143;DHT22;28750;59.842;17.584;2022-07-10T02:08:49;12.20;99.90
43143;DHT22;28750;59.842;17.584;2022-07-10T02:11:16;12.30;99.90
43143;DHT22;28750;59.842;17.584;2022-07-10T02:13:43;12.30;99.90
43143;DHT22;28750;59.842;17.584;2022-07-10T02:16:10;12.40;99.90
43143;DHT22;28750;59.842;17.584;2022-07-10T02:18:37;12.40;99.90
43143;DHT22;28750;59.842;17.584;2022-07-10T02:21:05;12.50;99.90
43143;DHT22;28750;59.842;17.584;2022-07-10T02:23:34;12.60;99.90
43143;DHT22;28750;59.842;17.584;2022-07-10T02:26:01;12.50;84.20
43143;DHT22;28750;59.842;17.584;2022-07-10T02:28:28;12.50;92.40
43143;DHT22;28750;59.842;17.584;2022-07-10T02:30:56;12.50;99.90
43143;DHT22;28750;59.842;17.584;2022-07-10T02:33:23;12.50;99.90
43143;DHT22;28750;59.842;17.584;2022-07-10T02:35:50;12.50;96.70
43143;DHT22;28750;59.842;17.584;2022-07-10T02:38:17;12.50;99.90
43143;DHT22;28750;59.842;17.584;2022-07-10T02:40:44;12.40;99.90
43143;DHT22;28750;59.842;17.584;2022-07-10T02:43:11;12.40;99.90
43143;DHT22;28750;59.842;17.584;2022-07-10T02:45:37;12.30;99.90
43143;DHT22;28750;59.842;17.584;2022-07-10T02:48:05;12.30;99.90
43143;DHT22;28750;59.842;17.584;2022-07-10T02:50:32;12.20;99.90
43143;DHT22;28750;59.842;17.584;2022-07-10T02:52:59;12.30;99.90
43143;DHT22;28750;59.842;17.584;2022-07-10T02:55:26;12.30;99.90
43143;DHT22;28750;59.842;17.584;2022-07-10T02:57:53;12.30;99.90
43143;DHT22;28750;59.842;17.584;2022-07-10T03:00:20;12.40;99.90
43143;DHT22;28750;59.842;17.584;2022-07-10T03:02:47;12.40;99.90
43143;DHT22;28750;59.842;17.584;2022-07-10T03:05:14;12.50;99.90
43143;DHT22;28750;59.842;17.584;2022-07-10T03:07:41;12.50;87.70
43143;DHT22;28750;59.842;17.584;2022-07-10T03:10:08;12.40;99.90
43143;DHT22;28750;59.842;17.584;2022-07-10T03:12:36;12.40;88.20
43143;DHT22;28750;59.842;17.584;2022-07-10T03:15:05;12.50;65.90
43143;DHT22;28750;59.842;17.584;2022-07-10T03:17:32;12.60;40.70
43143;DHT22;28750;59.842;17.584;2022-07-10T03:19:59;12.70;28.20
43143;DHT22;28750;59.842;17.584;2022-07-10T03:22:26;12.70;5.50
43143;DHT22;28750;59.842;17.584;2022-07-10T03:24:54;12.70;8.10
43143;DHT22;28750;59.842;17.584;2022-07-10T03:27:21;12.70;17.50
43143;DHT22;28750;59.842;17.584;2022-07-10T03:29:48;12.60;17.40
43143;DHT22;28750;59.842;17.584;2022-07-10T03:32:15;12.60;29.60
43143;DHT22;28750;59.842;17.584;2022-07-10T03:34:42;12.70;13.80
43143;DHT22;28750;59.842;17.584;2022-07-10T03:37:09;12.70;11.90
43143;DHT22;28750;59.842;17.584;2022-07-10T03:39:36;12.80;28.70
43143;DHT22;28750;59.842;17.584;2022-07-10T03:42:03;12.80;9.10
43143;DHT22;28750;59.842;17.584;2022-07-10T03:44:31;12.80;1.00
43143;DHT22;28750;59.842;17.584;2022-07-10T03:46:59;12.80;1.00
43143;DHT22;28750;59.842;17.584;2022-07-10T03:49:26;12.70;1.00
43143;DHT22;28750;59.842;17.584;2022-07-10T03:51:53;12.70;1.00
43143;DHT22;28750;59.842;17.584;2022-07-10T03:54:21;12.70;1.00
43143;DHT22;28750;59.842;17.584;2022-07-10T03:56:48;12.70;1.00
43143;DHT22;28750;59.842;17.584;2022-07-10T03:59:32;12.70;1.00
43143;DHT22;28750;59.842;17.584;2022-07-10T04:01:59;12.60;1.00
43143;DHT22;28750;59.842;17.584;2022-07-10T04:04:26;12.70;1.00
43143;DHT22;28750;59.842;17.584;2022-07-10T04:06:54;12.70;1.00
43143;DHT22;28750;59.842;17.584;2022-07-10T04:09:21;12.80;1.00
43143;DHT22;28750;59.842;17.584;2022-07-10T04:11:48;12.90;1.00
43143;DHT22;28750;59.842;17.584;2022-07-10T04:14:16;12.90;1.00
43143;DHT22;28750;59.842;17.584;2022-07-10T04:16:43;13.20;99.90
43143;DHT22;28750;59.842;17.584;2022-07-10T04:19:10;13.70;99.90
43143;DHT22;28750;59.842;17.584;2022-07-10T04:21:36;13.90;99.90
43143;DHT22;28750;59.842;17.584;2022-07-10T04:24:04;14.10;99.90
43143;DHT22;28750;59.842;17.584;2022-07-10T04:26:31;14.40;99.90
43143;DHT22;28750;59.842;17.584;2022-07-10T04:28:58;14.40;99.90
43143;DHT22;28750;59.842;17.584;2022-07-10T04:31:25;14.70;1.00
43143;DHT22;28750;59.842;17.584;2022-07-10T04:33:52;14.80;99.90
43143;DHT22;28750;59.842;17.584;2022-07-10T04:36:19;14.90;99.90
43143;DHT22;28750;59.842;17.584;2022-07-10T04:38:46;14.90;1.00
43143;DHT22;28750;59.842;17.584;2022-07-10T04:41:13;15.00;99.90
43143;DHT22;28750;59.842;17.584;2022-07-10T04:43:40;15.10;1.00
43143;DHT22;28750;59.842;17.584;2022-07-10T04:46:07;15.10;99.90
43143;DHT22;28750;59.842;17.584;2022-07-10T04:48:33;15.30;1.00
43143;DHT22;28750;59.842;17.584;2022-07-10T04:51:00;15.30;99.90
43143;DHT22;28750;59.842;17.584;2022-07-10T04:53:27;15.20;99.90
43143;DHT22;28750;59.842;17.584;2022-07-10T04:55:54;15.20;99.90
43143;DHT22;28750;59.842;17.584;2022-07-10T04:58:21;15.50;99.90
43143;DHT22;28750;59.842;17.584;2022-07-10T05:00:48;15.60;99.90
43143;DHT22;28750;59.842;17.584;2022-07-10T05:03:15;15.70;99.90
43143;DHT22;28750;59.842;17.584;2022-07-10T05:05:42;15.70;99.90
43143;DHT22;28750;59.842;17.584;2022-07-10T05:08:10;15.80;99.90
43143;DHT22;28750;59.842;17.584;2022-07-10T05:10:37;15.50;39.80
43143;DHT22;28750;59.842;17.584;2022-07-10T05:13:05;15.90;49.10
43143;DHT22;28750;59.842;17.584;2022-07-10T05:15:32;15.70;48.90
43143;DHT22;28750;59.842;17.584;2022-07-10T05:17:59;16.00;99.90
43143;DHT22;28750;59.842;17.584;2022-07-10T05:20:26;16.10;49.70
43143;DHT22;28750;59.842;17.584;2022-07-10T05:22:53;16.40;1.00
43143;DHT22;28750;59.842;17.584;2022-07-10T05:25:20;16.40;1.00
43143;DHT22;28750;59.842;17.584;2022-07-10T05:27:47;16.40;1.00
43143;DHT22;28750;59.842;17.584;2022-07-10T05:30:14;16.40;1.00
43143;DHT22;28750;59.842;17.584;2022-07-10T05:32:45;16.50;1.00
43143;DHT22;28750;59.842;17.584;2022-07-10T05:35:14;16.40;1.00
43143;DHT22;28750;59.842;17.584;2022-07-10T05:37:41;16.50;1.00
43143;DHT22;28750;59.842;17.584;2022-07-10T05:40:08;16.60;1.00
43143;DHT22;28750;59.842;17.584;2022-07-10T05:42:35;16.80;1.00
43143;DHT22;28750;59.842;17.584;2022-07-10T05:45:03;16.80;1.00
43143;DHT22;28750;59.842;17.584;2022-07-10T05:47:31;16.60;1.00
43143;DHT22;28750;59.842;17.584;2022-07-10T05:49:59;17.00;1.00
43143;DHT22;28750;59.842;17.584;2022-07-10T05:52:26;17.10;99.90
43143;DHT22;28750;59.842;17.584;2022-07-10T05:54:52;16.90;99.90
43143;DHT22;28750;59.842;17.584;2022-07-10T05:57:20;17.10;99.90
43143;DHT22;28750;59.842;17.584;2022-07-10T05:59:47;16.80;99.90
43143;DHT22;28750;59.842;17.584;2022-07-10T06:02:14;16.50;99.90
43143;DHT22;28750;59.842;17.584;2022-07-10T06:04:42;16.30;1.00
43143;DHT22;28750;59.842;17.584;2022-07-10T06:07:09;16.60;1.00
43143;DHT22;28750;59.842;17.584;2022-07-10T06:09:36;16.60;99.90
43143;DHT22;28750;59.842;17.584;2022-07-10T06:12:03;17.00;99.90
43143;DHT22;28750;59.842;17.584;2022-07-10T06:14:31;16.80;99.90
43143;DHT22;28750;59.842;17.584;2022-07-10T06:16:58;16.00;99.90
43143;DHT22;28750;59.842;17.584;2022-07-10T06:19:25;16.00;1.00
43143;DHT22;28750;59.842;17.584;2022-07-10T06:21:52;15.70;35.50
43143;DHT22;28750;59.842;17.584;2022-07-10T06:24:32;15.90;1.00
43143;DHT22;28750;59.842;17.584;2022-07-10T06:26:59;15.90;1.00
43143;DHT22;28750;59.842;17.584;2022-07-10T06:29:27;15.90;1.00
43143;DHT22;28750;59.842;17.584;2022-07-10T06:31:54;15.90;1.00
43143;DHT22;28750;59.842;17.584;2022-07-10T06:34:21;16.20;1.00
43143;DHT22;28750;59.842;17.584;2022-07-10T06:36:48;16.10;1.00
43143;DHT22;28750;59.842;17.584;2022-07-10T06:39:15;16.00;1.00
43143;DHT22;28750;59.842;17.584;2022-07-10T06:41:42;16.00;74.10
43143;DHT22;28750;59.842;17.584;2022-07-10T06:44:09;16.10;1.00
43143;DHT22;28750;59.842;17.584;2022-07-10T06:46:36;16.00;1.00
43143;DHT22;28750;59.842;17.584;2022-07-10T06:49:03;16.30;1.00
43143;DHT22;28750;59.842;17.584;2022-07-10T06:51:29;16.60;1.00
43143;DHT22;28750;59.842;17.584;2022-07-10T06:53:56;16.50;1.00
43143;DHT22;28750;59.842;17.584;2022-07-10T06:56:24;16.40;1.00
43143;DHT22;28750;59.842;17.584;2022-07-10T06:58:51;16.20;1.00
43143;DHT22;28750;59.842;17.584;2022-07-10T07:01:18;16.40;1.00
43143;DHT22;28750;59.842;17.584;2022-07-10T07:03:45;16.50;1.00
43143;DHT22;28750;59.842;17.584;2022-07-10T07:06:11;16.60;1.00
43143;DHT22;28750;59.842;17.584;2022-07-10T07:08:38;16.40;1.00
43143;DHT22;28750;59.842;17.584;2022-07-10T07:11:05;16.20;1.00
43143;DHT22;28750;59.842;17.584;2022-07-10T07:13:32;16.10;34.70
43143;DHT22;28750;59.842;17.584;2022-07-10T07:15:59;15.90;1.00
43143;DHT22;28750;59.842;17.584;2022-07-10T07:18:30;15.80;91.10
43143;DHT22;28750;59.842;17.584;2022-07-10T07:21:00;15.90;99.90
43143;DHT22;28750;59.842;17.584;2022-07-10T07:23:45;15.90;99.90
43143;DHT22;28750;59.842;17.584;2022-07-10T07:26:12;16.20;99.90
43143;DHT22;28750;59.842;17.584;2022-07-10T07:28:39;16.40;49.10
43143;DHT22;28750;59.842;17.584;2022-07-10T07:31:06;16.80;1.00
43143;DHT22;28750;59.842;17.584;2022-07-10T07:33:33;17.00;99.90
43143;DHT22;28750;59.842;17.584;2022-07-10T07:36:00;16.60;99.90
43143;DHT22;28750;59.842;17.584;2022-07-10T07:38:27;16.50;1.00
43143;DHT22;28750;59.842;17.584;2022-07-10T07:40:54;16.40;1.00
43143;DHT22;28750;59.842;17.584;2022-07-10T07:43:21;16.50;1.00
43143;DHT22;28750;59.842;17.584;2022-07-10T07:45:48;16.60;1.00
43143;DHT22;28750;59.842;17.584;2022-07-10T07:48:15;16.50;1.00
43143;DHT22;28750;59.842;17.584;2022-07-10T07:50:42;16.30;1.00
43143;DHT22;28750;59.842;17.584;2022-07-10T07:53:09;16.10;1.00
43143;DHT22;28750;59.842;17.584;2022-07-10T07:55:38;16.10;1.00
43143;DHT22;28750;59.842;17.584;2022-07-10T07:58:05;16.00;30.00
43143;DHT22;28750;59.842;17.584;2022-07-10T08:00:33;15.70;55.00
43143;DHT22;28750;59.842;17.584;2022-07-10T08:03:00;15.50;93.20
43143;DHT22;28750;59.842;17.584;2022-07-10T08:05:27;15.50;99.90
43143;DHT22;28750;59.842;17.584;2022-07-10T08:07:59;15.50;99.90
43143;DHT22;28750;59.842;17.584;2022-07-10T08:10:30;15.50;99.90
43143;DHT22;28750;59.842;17.584;2022-07-10T08:12:57;15.60;99.90
43143;DHT22;28750;59.842;17.584;2022-07-10T08:15:24;15.90;99.90
43143;DHT22;28750;59.842;17.584;2022-07-10T08:17:55;16.10;99.90
43143;DHT22;28750;59.842;17.584;2022-07-10T08:20:23;16.20;99.90
43143;DHT22;28750;59.842;17.584;2022-07-10T08:22:51;16.20;99.90
43143;DHT22;28750;59.842;17.584;2022-07-10T08:25:20;16.10;96.10
43143;DHT22;28750;59.842;17.584;2022-07-10T08:27:47;16.00;90.20
43143;DHT22;28750;59.842;17.584;2022-07-10T08:30:14;16.10;99.90
43143;DHT22;28750;59.842;17.584;2022-07-10T08:32:41;16.10;99.90
43143;DHT22;28750;59.842;17.584;2022-07-10T08:35:09;16.30;99.90
43143;DHT22;28750;59.842;17.584;2022-07-10T08:37:41;16.20;52.90
43143;DHT22;28750;59.842;17.584;2022-07-10T08:40:09;16.30;99.90
43143;DHT22;28750;59.842;17.584;2022-07-10T08:42:38;16.30;99.90
43143;DHT22;28750;59.842;17.584;2022-07-10T08:45:06;16.40;99.90
43143;DHT22;28750;59.842;17.584;2022-07-10T08:47:34;16.70;99.90
43143;DHT22;28750;59.842;17.584;2022-07-10T08:50:02;16.90;99.90
43143;DHT22;28750;59.842;17.584;2022-07-10T08:52:42;16.70;99.90
43143;DHT22;28750;59.842;17.584;2022-07-10T08:55:14;16.70;91.60
43143;DHT22;28750;59.842;17.584;2022-07-10T08:57:43;17.00;45.90
43143;DHT22;28750;59.842;17.584;2022-07-10T09:00:10;17.50;28.40
43143;DHT22;28750;59.842;17.584;2022-07-10T09:02:37;17.90;57.00
43143;DHT22;28750;59.842;17.584;2022-07-10T09:05:04;18.00;1.00
43143;DHT22;28750;59.842;17.584;2022-07-10T09:07:37;17.90;1.00
43143;DHT22;28750;59.842;17.584;2022-07-10T09:10:09;17.60;1.00
43143;DHT22;28750;59.842;17.584;2022-07-10T09:13:08;17.60;28.40
43143;DHT22;28750;59.842;17.584;2022-07-10T09:15:36;17.90;1.00
43143;DHT22;28750;59.842;17.584;2022-07-10T09:18:04;18.00;1.00
43143;DHT22;28750;59.842;17.584;2022-07-10T09:20:39;18.10;1.00
43143;DHT22;28750;59.842;17.584;2022-07-10T09:23:28;17.90;1.00
43143;DHT22;28750;59.842;17.584;2022-07-10T09:25:55;18.00;9.80
43143;DHT22;28750;59.842;17.584;2022-07-10T09:28:24;17.40;1.00
43143;DHT22;28750;59.842;17.584;2022-07-10T09:30:51;17.40;1.00
43143;DHT22;28750;59.842;17.584;2022-07-10T09:33:28;17.50;99.90
43143;DHT22;28750;59.842;17.584;2022-07-10T09:41:29;18.20;99.90
43143;DHT22;28750;59.842;17.584;2022-07-10T09:44:05;18.30;99.90
43143;DHT22;28750;59.842;17.584;2022-07-10T09:46:36;18.20;99.90
43143;DHT22;28750;59.842;17.584;2022-07-10T09:49:09;18.50;99.90
43143;DHT22;28750;59.842;17.584;2022-07-10T09:51:41;18.60;99.90
43143;DHT22;28750;59.842;17.584;2022-07-10T09:54:09;18.80;99.90
43143;DHT22;28750;59.842;17.584;2022-07-10T09:56:55;19.30;99.90
43143;DHT22;28750;59.842;17.584;2022-07-10T09:59:22;18.80;99.90
43143;DHT22;28750;59.842;17.584;2022-07-10T10:01:51;18.40;99.90
43143;DHT22;28750;59.842;17.584;2022-07-10T10:04:20;18.00;99.90
43143;DHT22;28750;59.842;17.584;2022-07-10T10:06:56;17.80;1.00
43143;DHT22;28750;59.842;17.584;2022-07-10T10:09:33;17.30;1.00
43143;DHT22;28750;59.842;17.584;2022-07-10T10:12:39;17.10;43.20
43143;DHT22;28750;59.842;17.584;2022-07-10T10:15:11;16.90;99.90
43143;DHT22;28750;59.842;17.584;2022-07-10T10:17:40;16.90;91.70
43143;DHT22;28750;59.842;17.584;2022-07-10T10:20:08;16.90;97.10
43143;DHT22;28750;59.842;17.584;2022-07-10T10:22:53;17.00;1.00
43143;DHT22;28750;59.842;17.584;2022-07-10T10:25:24;17.00;1.00
43143;DHT22;28750;59.842;17.584;2022-07-10T10:27:51;17.00;99.90
43143;DHT22;28750;59.842;17.584;2022-07-10T10:30:18;16.80;91.90
43143;DHT22;28750;59.842;17.584;2022-07-10T10:32:46;16.70;99.90
43143;DHT22;28750;59.842;17.584;2022-07-10T10:35:45;16.50;99.90
43143;DHT22;28750;59.842;17.584;2022-07-10T10:38:13;16.50;99.90
43143;DHT22;28750;59.842;17.584;2022-07-10T10:40:42;16.70;99.90
43143;DHT22;28750;59.842;17.584;2022-07-10T10:43:35;16.70;99.90
43143;DHT22;28750;59.842;17.584;2022-07-10T10:46:25;16.70;99.90
43143;DHT22;28750;59.842;17.584;2022-07-10T10:49:05;16.50;99.90
43143;DHT22;28750;59.842;17.584;2022-07-10T10:57:17;15.20;1.00
43143;DHT22;28750;59.842;17.584;2022-07-10T10:59:52;15.50;1.00
43143;DHT22;28750;59.842;17.584;2022-07-10T11:02:29;15.70;1.00
43143;DHT22;28750;59.842;17.584;2022-07-10T11:08:00;15.90;1.00
43143;DHT22;28750;59.842;17.584;2022-07-10T11:10:35;16.00;13.10
43143;DHT22;28750;59.842;17.584;2022-07-10T11:15:30;16.30;1.00
43143;DHT22;28750;59.842;17.584;2022-07-10T11:18:13;16.40;13.10
43143;DHT22;28750;59.842;17.584;2022-07-10T11:20:42;16.30;1.00
43143;DHT22;28750;59.842;17.584;2022-07-10T11:23:31;16.20;1.00
43143;DHT22;28750;59.842;17.584;2022-07-10T11:26:07;16.20;1.00
43143;DHT22;28750;59.842;17.584;2022-07-10T11:31:16;16.20;8.40
43143;DHT22;28750;59.842;17.584;2022-07-10T11:33:45;16.10;1.00
43143;DHT22;28750;59.842;17.584;2022-07-10T11:36:19;16.00;23.00
43143;DHT22;28750;59.842;17.584;2022-07-10T11:38:47;16.10;1.00
43143;DHT22;28750;59.842;17.584;2022-07-10T11:41:16;15.90;1.00
43143;DHT22;28750;59.842;17.584;2022-07-10T11:43:50;16.00;1.00
43143;DHT22;28750;59.842;17.584;2022-07-10T11:46:17;16.20;1.00
43143;DHT22;28750;59.842;17.584;2022-07-10T11:48:45;16.30;1.00
43143;DHT22;28750;59.842;17.584;2022-07-10T11:56:35;16.90;1.00
43143;DHT22;28750;59.842;17.584;2022-07-10T11:59:06;16.90;99.90
43143;DHT22;28750;59.842;17.584;2022-07-10T12:01:45;17.10;99.90
43143;DHT22;28750;59.842;17.584;2022-07-10T12:04:14;17.20;99.90
43143;DHT22;28750;59.842;17.584;2022-07-10T12:06:47;17.20;99.90
43143;DHT22;28750;59.842;17.584;2022-07-10T12:09:16;17.00;1.00
43143;DHT22;28750;59.842;17.584;2022-07-10T12:11:44;17.10;99.90
43143;DHT22;28750;59.842;17.584;2022-07-10T12:14:24;17.30;99.90
43143;DHT22;28750;59.842;17.584;2022-07-10T12:16:54;17.60;99.90
43143;DHT22;28750;59.842;17.584;2022-07-10T12:19:24;18.10;1.00
43143;DHT22;28750;59.842;17.584;2022-07-10T12:21:53;18.30;99.90
43143;DHT22;28750;59.842;17.584;2022-07-10T12:24:20;18.30;99.90
43143;DHT22;28750;59.842;17.584;2022-07-10T12:26:50;18.20;1.00
43143;DHT22;28750;59.842;17.584;2022-07-10T12:29:25;18.00;1.00
43143;DHT22;28750;59.842;17.584;2022-07-10T12:31:54;17.90;1.00
43143;DHT22;28750;59.842;17.584;2022-07-10T12:34:37;17.90;1.00
43143;DHT22;28750;59.842;17.584;2022-07-10T12:37:12;18.20;1.00
43143;DHT22;28750;59.842;17.584;2022-07-10T12:39:50;18.20;99.90
43143;DHT22;28750;59.842;17.584;2022-07-10T12:42:29;18.30;99.90
43143;DHT22;28750;59.842;17.584;2022-07-10T12:45:15;18.20;99.90
43143;DHT22;28750;59.842;17.584;2022-07-10T12:47:46;18.00;99.90
43143;DHT22;28750;59.842;17.584;2022-07-10T12:50:15;18.00;99.90
43143;DHT22;28750;59.842;17.584;2022-07-10T12:52:43;18.00;99.90
43143;DHT22;28750;59.842;17.584;2022-07-10T12:57:51;18.30;1.00
43143;DHT22;28750;59.842;17.584;2022-07-10T13:00:26;18.40;1.00
43143;DHT22;28750;59.842;17.584;2022-07-10T13:08:19;18.60;36.70
43143;DHT22;28750;59.842;17.584;2022-07-10T13:10:58;18.50;1.00
43143;DHT22;28750;59.842;17.584;2022-07-10T13:13:25;19.50;1.00
43143;DHT22;28750;59.842;17.584;2022-07-10T13:15:52;20.10;1.00
43143;DHT22;28750;59.842;17.584;2022-07-10T13:18:21;19.70;99.90
43143;DHT22;28750;59.842;17.584;2022-07-10T13:20:50;19.70;99.90
43143;DHT22;28750;59.842;17.584;2022-07-10T13:23:18;19.70;1.00
43143;DHT22;28750;59.842;17.584;2022-07-10T13:25:55;19.80;1.00
43143;DHT22;28750;59.842;17.584;2022-07-10T13:28:22;20.20;99.90
43143;DHT22;28750;59.842;17.584;2022-07-10T13:30:50;20.00;99.90
43143;DHT22;28750;59.842;17.584;2022-07-10T13:33:17;19.90;99.90
43143;DHT22;28750;59.842;17.584;2022-07-10T13:35:44;19.90;1.00
43143;DHT22;28750;59.842;17.584;2022-07-10T13:38:11;20.00;99.90
43143;DHT22;28750;59.842;17.584;2022-07-10T13:40:39;20.00;99.90
43143;DHT22;28750;59.842;17.584;2022-07-10T13:43:07;20.80;99.90
43143;DHT22;28750;59.842;17.584;2022-07-10T13:45:35;20.80;99.90
43143;DHT22;28750;59.842;17.584;2022-07-10T13:48:09;21.20;99.90
43143;DHT22;28750;59.842;17.584;2022-07-10T13:50:43;20.40;99.90
43143;DHT22;28750;59.842;17.584;2022-07-10T13:53:12;19.70;99.90
43143;DHT22;28750;59.842;17.584;2022-07-10T13:55:39;19.40;99.90
43143;DHT22;28750;59.842;17.584;2022-07-10T13:58:07;19.40;99.90
43143;DHT22;28750;59.842;17.584;2022-07-10T14:00:34;19.30;99.90
43143;DHT22;28750;59.842;17.584;2022-07-10T14:03:02;19.70;99.90
43143;DHT22;28750;59.842;17.584;2022-07-10T14:05:29;19.60;99.90
43143;DHT22;28750;59.842;17.584;2022-07-10T14:07:56;19.40;99.90
43143;DHT22;28750;59.842;17.584;2022-07-10T14:10:23;19.20;99.90
43143;DHT22;28750;59.842;17.584;2022-07-10T14:12:54;19.90;99.90
43143;DHT22;28750;59.842;17.584;2022-07-10T14:15:21;20.10;99.90
43143;DHT22;28750;59.842;17.584;2022-07-10T14:17:48;20.60;99.90
43143;DHT22;28750;59.842;17.584;2022-07-10T14:20:17;21.10;99.90
43143;DHT22;28750;59.842;17.584;2022-07-10T14:22:44;21.00;99.90
43143;DHT22;28750;59.842;17.584;2022-07-10T14:25:13;21.00;61.80
43143;DHT22;28750;59.842;17.584;2022-07-10T14:27:40;21.30;94.90
43143;DHT22;28750;59.842;17.584;2022-07-10T14:30:07;21.00;98.40
43143;DHT22;28750;59.842;17.584;2022-07-10T14:32:34;21.20;50.90
43143;DHT22;28750;59.842;17.584;2022-07-10T14:35:01;21.80;90.40
43143;DHT22;28750;59.842;17.584;2022-07-10T14:37:28;21.60;69.70
43143;DHT22;28750;59.842;17.584;2022-07-10T14:39:55;20.50;99.90
43143;DHT22;28750;59.842;17.584;2022-07-10T14:42:22;19.40;99.90
43143;DHT22;28750;59.842;17.584;2022-07-10T14:44:49;18.90;99.90
43143;DHT22;28750;59.842;17.584;2022-07-10T14:47:16;18.70;99.90
43143;DHT22;28750;59.842;17.584;2022-07-10T14:49:43;19.80;99.90
43143;DHT22;28750;59.842;17.584;2022-07-10T14:52:10;20.70;99.90
43143;DHT22;28750;59.842;17.584;2022-07-10T14:54:39;20.30;99.90
43143;DHT22;28750;59.842;17.584;2022-07-10T14:57:05;19.40;99.90
43143;DHT22;28750;59.842;17.584;2022-07-10T14:59:32;19.20;99.90
43143;DHT22;28750;59.842;17.584;2022-07-10T15:01:59;19.20;99.90
43143;DHT22;28750;59.842;17.584;2022-07-10T15:04:26;19.40;99.90
43143;DHT22;28750;59.842;17.584;2022-07-10T15:06:53;19.70;99.90
43143;DHT22;28750;59.842;17.584;2022-07-10T15:09:20;19.60;99.90
43143;DHT22;28750;59.842;17.584;2022-07-10T15:11:47;19.30;99.90
43143;DHT22;28750;59.842;17.584;2022-07-10T15:14:14;19.10;99.90
43143;DHT22;28750;59.842;17.584;2022-07-10T15:16:41;18.90;1.00
43143;DHT22;28750;59.842;17.584;2022-07-10T15:19:08;18.90;1.00
43143;DHT22;28750;59.842;17.584;2022-07-10T15:21:36;18.90;57.20
43143;DHT22;28750;59.842;17.584;2022-07-10T15:24:04;18.80;99.90
43143;DHT22;28750;59.842;17.584;2022-07-10T15:26:31;18.70;1.00
43143;DHT22;28750;59.842;17.584;2022-07-10T15:28:58;18.50;99.90
43143;DHT22;28750;59.842;17.584;2022-07-10T15:31:25;18.30;99.90
43143;DHT22;28750;59.842;17.584;2022-07-10T15:33:52;18.10;1.00
43143;DHT22;28750;59.842;17.584;2022-07-10T15:36:19;17.80;1.00
43143;DHT22;28750;59.842;17.584;2022-07-10T15:38:47;18.00;99.90
43143;DHT22;28750;59.842;17.584;2022-07-10T15:41:14;17.70;1.00
43143;DHT22;28750;59.842;17.584;2022-07-10T15:43:41;17.70;99.90
43143;DHT22;28750;59.842;17.584;2022-07-10T15:46:11;17.60;1.00
43143;DHT22;28750;59.842;17.584;2022-07-10T15:48:40;17.20;99.90
43143;DHT22;28750;59.842;17.584;2022-07-10T15:51:07;17.40;99.90
43143;DHT22;28750;59.842;17.584;2022-07-10T15:53:35;17.70;99.90
43143;DHT22;28750;59.842;17.584;2022-07-10T15:56:02;17.70;99.90
43143;DHT22;28750;59.842;17.584;2022-07-10T15:58:29;17.70;99.90
43143;DHT22;28750;59.842;17.584;2022-07-10T16:00:56;17.80;1.00
43143;DHT22;28750;59.842;17.584;2022-07-10T16:03:23;17.90;1.00